Inicio METAR Ruta Wind Satelite

Informe Meteorológico

Fecha: 2020/07/02 00:42:11 Local
2020.07.02 05:42 UTC


Estado: VENCIDO
Operación:
Station name not available
2020.03.13 0100 UTC
Wind: from the NNE (030 degrees) at 6 MPH (5 KT):0
Visibility: 4 mile(s):0
Temperature: 89 F (32 C)
Dew Point: 64 F (18 C)
Relative Humidity: 43%
Pressure (altimeter): 29.77 in. Hg (1008 hPa)
ob: SKYP 130100Z 03005KT 8000 NSC 32/18 A2977 RMK HZ
cycle: 1